Time;durP1;ratioP1;P1;durP2;ratioP2;P2;SDS_P1;SDS_P2;PMS_P1;PMS_P2;Temp;Humidity;BMP_temperature;BMP_pressure;BME280_temperature;BME280_humidity;BME280_pressure;Samples;Min_cycle;Max_cycle;Signal;HPM_P1;HPM_P2
2023/07/06 00:01:55;;;;;;;3.50;3.15;;;;;;;;;;5055003;28;20037;-68
2023/07/06 00:04:22;;;;;;;8.38;3.00;;;;;;;;;;5048172;28;20032;-67
2023/07/06 00:06:48;;;;;;;4.03;3.03;;;;;;;;;;5055324;28;20041;-67
2023/07/06 00:09:14;;;;;;;4.10;3.20;;;;;;;;;;5053973;28;20086;-67
2023/07/06 00:11:41;;;;;;;7.25;2.80;;;;;;;;;;5040996;28;20040;-67
2023/07/06 00:14:09;;;;;;;8.15;3.85;;;;;;;;;;5055570;28;20052;-68
2023/07/06 00:16:35;;;;;;;4.63;3.00;;;;;;;;;;5042699;28;20059;-67
2023/07/06 00:19:01;;;;;;;4.28;2.60;;;;;;;;;;5053002;28;20025;-67
2023/07/06 00:21:31;;;;;;;7.13;3.40;;;;;;;;;;5036863;28;20091;-68
2023/07/06 00:23:57;;;;;;;5.43;3.08;;;;;;;;;;5049791;28;20039;-68
2023/07/06 00:26:22;;;;;;;5.32;3.50;;;;;;;;;;5039807;28;20045;-68
2023/07/06 00:28:48;;;;;;;3.90;3.08;;;;;;;;;;5041639;28;20044;-68
2023/07/06 00:31:21;;;;;;;4.72;3.20;;;;;;;;;;5036897;28;20052;-68
2023/07/06 00:33:48;;;;;;;4.07;3.10;;;;;;;;;;5046650;28;20095;-68
2023/07/06 00:36:15;;;;;;;9.23;3.20;;;;;;;;;;5043261;28;20037;-67
2023/07/06 00:38:40;;;;;;;5.15;3.10;;;;;;;;;;5055006;28;20390;-68
2023/07/06 00:41:06;;;;;;;6.78;3.20;;;;;;;;;;5028442;28;20037;-68
2023/07/06 00:43:52;;;;;;;3.45;3.13;;;;;;;;;;5020803;28;20028;-68
2023/07/06 00:46:20;;;;;;;5.18;3.05;;;;;;;;;;5032281;28;20067;-68
2023/07/06 00:48:48;;;;;;;6.00;3.13;;;;;;;;;;5037885;28;20033;-68
2023/07/06 00:51:21;;;;;;;7.55;3.78;;;;;;;;;;5056366;28;20037;-67
2023/07/06 00:53:53;;;;;;;4.30;3.15;;;;;;;;;;5054340;28;20121;-68
2023/07/06 00:56:23;;;;;;;4.20;3.10;;;;;;;;;;5042073;28;20047;-68
2023/07/06 00:58:50;;;;;;;9.65;3.88;;;;;;;;;;5056395;28;20098;-67
2023/07/06 01:01:19;;;;;;;7.68;4.03;;;;;;;;;;5037962;28;20038;-68
2023/07/06 01:03:54;;;;;;;3.80;3.17;;;;;;;;;;5058970;28;20021;-68
2023/07/06 01:06:34;;;;;;;7.63;3.75;;;;;;;;;;5046336;28;20467;-68
2023/07/06 01:09:00;;;;;;;9.60;3.53;;;;;;;;;;5054780;28;22087;-68
2023/07/06 01:11:28;;;;;;;7.28;4.15;;;;;;;;;;5036053;28;20047;-68
2023/07/06 01:13:54;;;;;;;6.38;3.72;;;;;;;;;;5054069;28;20025;-68
2023/07/06 01:16:43;;;;;;;4.35;3.47;;;;;;;;;;5050400;28;20072;-68
2023/07/06 01:19:46;;;;;;;9.25;3.50;;;;;;;;;;4998779;28;20437;-68
2023/07/06 01:22:32;;;;;;;4.10;3.70;;;;;;;;;;5050963;28;20068;-68
2023/07/06 01:25:09;;;;;;;6.32;3.83;;;;;;;;;;5054333;28;20052;-67
2023/07/06 01:27:42;;;;;;;5.65;3.70;;;;;;;;;;5053077;28;20033;-68
2023/07/06 01:30:22;;;;;;;5.45;3.95;;;;;;;;;;5047870;28;20087;-68
2023/07/06 01:32:55;;;;;;;7.00;3.38;;;;;;;;;;5055087;28;20045;-68
2023/07/06 01:35:33;;;;;;;8.75;3.88;;;;;;;;;;5048913;28;20029;-69
2023/07/06 01:38:00;;;;;;;5.93;3.60;;;;;;;;;;5030532;28;20458;-68
2023/07/06 01:40:25;;;;;;;3.70;3.35;;;;;;;;;;5041993;28;20049;-67
2023/07/06 01:42:51;;;;;;;6.55;3.95;;;;;;;;;;5023344;28;20164;-68
2023/07/06 01:45:20;;;;;;;9.85;3.53;;;;;;;;;;5036266;28;20025;-68
2023/07/06 01:47:51;;;;;;;7.25;3.70;;;;;;;;;;5036646;28;20017;-67
2023/07/06 01:50:20;;;;;;;6.20;3.72;;;;;;;;;;5041389;28;20070;-68
2023/07/06 01:53:04;;;;;;;9.43;4.57;;;;;;;;;;5053236;28;20013;-67
2023/07/06 01:55:37;;;;;;;3.95;3.50;;;;;;;;;;5048512;28;20048;-68
2023/07/06 01:58:26;;;;;;;3.80;3.50;;;;;;;;;;5044702;28;20550;-67
2023/07/06 02:00:57;;;;;;;3.78;3.30;;;;;;;;;;5042980;28;20555;-67
2023/07/06 02:03:25;;;;;;;13.25;3.50;;;;;;;;;;5028382;28;20096;-68
2023/07/06 02:05:51;;;;;;;4.60;3.88;;;;;;;;;;5030300;28;20029;-68
2023/07/06 02:08:17;;;;;;;4.70;3.40;;;;;;;;;;5032785;28;20037;-68
2023/07/06 02:10:43;;;;;;;5.80;3.60;;;;;;;;;;5036754;28;20042;-68
2023/07/06 02:13:09;;;;;;;6.07;3.53;;;;;;;;;;5039429;28;20036;-68
2023/07/06 02:15:34;;;;;;;8.35;3.58;;;;;;;;;;5047294;28;20073;-68
2023/07/06 02:18:02;;;;;;;9.25;3.20;;;;;;;;;;5034624;28;20097;-68
2023/07/06 02:20:27;;;;;;;6.40;3.60;;;;;;;;;;5054738;28;20559;-68
2023/07/06 02:22:53;;;;;;;5.65;3.10;;;;;;;;;;5042631;28;22385;-68
2023/07/06 02:25:20;;;;;;;5.40;3.80;;;;;;;;;;5021253;28;20037;-68
2023/07/06 02:27:46;;;;;;;4.75;3.55;;;;;;;;;;5053293;28;20072;-67
2023/07/06 02:30:12;;;;;;;4.68;3.20;;;;;;;;;;5048561;28;20560;-68
2023/07/06 02:32:39;;;;;;;6.82;3.10;;;;;;;;;;5039705;28;20096;-67
2023/07/06 02:35:06;;;;;;;4.13;3.60;;;;;;;;;;5051472;28;20110;-68
2023/07/06 02:37:31;;;;;;;10.75;3.20;;;;;;;;;;5022214;28;21024;-67
2023/07/06 02:40:00;;;;;;;6.28;3.33;;;;;;;;;;5034712;28;20028;-64
2023/07/06 02:42:26;;;;;;;7.65;3.30;;;;;;;;;;5032382;28;20017;-68
2023/07/06 02:44:53;;;;;;;4.25;2.92;;;;;;;;;;5056454;28;20033;-57
2023/07/06 02:47:21;;;;;;;4.85;3.33;;;;;;;;;;5056591;28;20040;-67
2023/07/06 02:49:47;;;;;;;6.60;3.42;;;;;;;;;;5055128;28;20031;-67
2023/07/06 02:52:12;;;;;;;6.97;3.30;;;;;;;;;;5026077;28;20101;-67
2023/07/06 02:54:38;;;;;;;4.57;3.75;;;;;;;;;;5024782;28;20485;-67
2023/07/06 02:57:03;;;;;;;10.95;3.80;;;;;;;;;;5013639;28;20401;-66
2023/07/06 02:59:29;;;;;;;4.82;3.35;;;;;;;;;;5063954;28;20342;-68
2023/07/06 03:01:56;;;;;;;4.40;3.00;;;;;;;;;;5058385;28;20391;-68
2023/07/06 03:04:22;;;;;;;6.35;3.20;;;;;;;;;;5039491;28;20021;-68
2023/07/06 03:06:48;;;;;;;4.60;3.10;;;;;;;;;;5034737;28;20034;-68
2023/07/06 03:09:14;;;;;;;9.52;3.40;;;;;;;;;;5039214;28;20049;-67
2023/07/06 03:11:44;;;;;;;5.80;3.60;;;;;;;;;;5058174;28;20036;-68
2023/07/06 03:14:09;;;;;;;7.05;3.72;;;;;;;;;;5051121;28;20044;-68
2023/07/06 03:16:41;;;;;;;6.90;2.95;;;;;;;;;;5034194;28;20049;-67
2023/07/06 03:19:10;;;;;;;7.88;3.80;;;;;;;;;;5042479;28;20078;-67
2023/07/06 03:21:38;;;;;;;7.43;3.40;;;;;;;;;;5033779;28;20127;-67
2023/07/06 03:24:06;;;;;;;3.65;2.70;;;;;;;;;;5053808;28;20571;-68
2023/07/06 03:26:33;;;;;;;6.47;3.53;;;;;;;;;;5053332;28;20083;-67
2023/07/06 03:29:09;;;;;;;5.80;3.15;;;;;;;;;;5028802;28;20479;-67
2023/07/06 03:31:35;;;;;;;3.92;2.78;;;;;;;;;;5041362;28;20099;-67
2023/07/06 03:34:02;;;;;;;4.40;2.88;;;;;;;;;;5056536;28;20084;-68
2023/07/06 03:36:27;;;;;;;5.45;2.95;;;;;;;;;;5044229;28;20091;-68
2023/07/06 03:38:52;;;;;;;5.25;3.10;;;;;;;;;;5023819;28;20029;-67
2023/07/06 03:41:18;;;;;;;3.38;2.80;;;;;;;;;;5044847;28;20096;-66
2023/07/06 03:43:45;;;;;;;5.28;3.22;;;;;;;;;;5037500;28;20044;-67
2023/07/06 03:46:10;;;;;;;6.93;2.88;;;;;;;;;;5044103;28;20033;-67
2023/07/06 03:48:36;;;;;;;5.95;3.05;;;;;;;;;;5046229;28;20022;-67
2023/07/06 03:51:03;;;;;;;5.63;2.92;;;;;;;;;;5040031;28;20033;-68
2023/07/06 03:53:30;;;;;;;5.15;2.80;;;;;;;;;;5031963;28;20021;-68
2023/07/06 03:55:56;;;;;;;3.72;2.90;;;;;;;;;;5047830;28;20041;-68
2023/07/06 03:58:22;;;;;;;4.25;3.42;;;;;;;;;;5069158;28;20055;-67
2023/07/06 04:00:47;;;;;;;3.70;3.03;;;;;;;;;;5056521;28;20042;-67
2023/07/06 04:03:13;;;;;;;4.80;2.92;;;;;;;;;;5036886;28;20044;-67
2023/07/06 04:05:43;;;;;;;6.05;2.85;;;;;;;;;;5053044;28;20033;-67
2023/07/06 04:08:15;;;;;;;10.18;3.05;;;;;;;;;;5053929;28;20055;-68
2023/07/06 04:10:41;;;;;;;4.28;2.83;;;;;;;;;;5063780;28;20029;-68
2023/07/06 04:13:08;;;;;;;4.53;2.80;;;;;;;;;;5060006;28;20743;-68
2023/07/06 04:15:34;;;;;;;5.35;2.97;;;;;;;;;;5044095;28;20522;-68
2023/07/06 04:18:00;;;;;;;5.50;3.25;;;;;;;;;;5052519;28;20017;-68
2023/07/06 04:20:28;;;;;;;4.03;3.13;;;;;;;;;;5048049;28;20043;-68
2023/07/06 04:22:55;;;;;;;8.00;3.70;;;;;;;;;;5058563;28;20017;-67
2023/07/06 04:25:33;;;;;;;5.45;3.35;;;;;;;;;;5027726;28;20057;-67
2023/07/06 04:28:20;;;;;;;9.13;3.50;;;;;;;;;;5041722;28;20021;-67
2023/07/06 04:30:49;;;;;;;5.47;3.10;;;;;;;;;;5043863;28;20116;-67
2023/07/06 04:33:19;;;;;;;4.68;3.38;;;;;;;;;;5009206;28;20434;-68
2023/07/06 04:35:50;;;;;;;5.30;3.20;;;;;;;;;;5053046;28;20081;-67
2023/07/06 04:38:15;;;;;;;5.60;3.60;;;;;;;;;;5051340;28;20039;-68
2023/07/06 04:40:41;;;;;;;5.63;3.42;;;;;;;;;;5025089;28;20056;-68
2023/07/06 04:43:07;;;;;;;4.70;3.30;;;;;;;;;;5032295;28;20081;-67
2023/07/06 04:45:32;;;;;;;13.10;3.60;;;;;;;;;;5052566;28;20124;-67
2023/07/06 04:47:58;;;;;;;6.25;3.30;;;;;;;;;;5052649;28;20060;-68
2023/07/06 04:50:24;;;;;;;7.10;3.15;;;;;;;;;;5031743;28;20665;-67
2023/07/06 04:52:57;;;;;;;7.53;3.53;;;;;;;;;;5023356;28;20030;-67
2023/07/06 04:55:25;;;;;;;8.45;3.60;;;;;;;;;;5049562;28;20056;-67
2023/07/06 04:57:54;;;;;;;13.95;4.18;;;;;;;;;;5056681;28;20025;-67
2023/07/06 05:00:24;;;;;;;17.02;3.55;;;;;;;;;;5058371;28;20033;-67
2023/07/06 05:02:51;;;;;;;7.93;3.55;;;;;;;;;;5048691;28;20081;-67
2023/07/06 05:05:18;;;;;;;8.90;3.70;;;;;;;;;;5054250;28;20029;-68
2023/07/06 05:07:45;;;;;;;7.13;3.25;;;;;;;;;;5054594;28;20032;-67
2023/07/06 05:10:11;;;;;;;8.57;4.00;;;;;;;;;;5036888;28;20037;-68
2023/07/06 05:12:37;;;;;;;6.32;3.60;;;;;;;;;;5041744;28;20025;-67
2023/07/06 05:15:03;;;;;;;4.28;3.58;;;;;;;;;;5048998;28;20025;-68
2023/07/06 05:17:29;;;;;;;7.50;3.22;;;;;;;;;;5041107;28;20043;-68
2023/07/06 05:19:55;;;;;;;11.43;3.75;;;;;;;;;;5035012;28;20482;-67
2023/07/06 05:22:21;;;;;;;3.60;3.05;;;;;;;;;;5056245;28;20049;-68
2023/07/06 05:24:48;;;;;;;10.45;3.40;;;;;;;;;;5023198;28;20411;-68
2023/07/06 05:27:14;;;;;;;10.63;3.28;;;;;;;;;;5017979;28;20044;-67
2023/07/06 05:29:40;;;;;;;6.30;3.22;;;;;;;;;;5040127;28;20024;-68
2023/07/06 05:32:06;;;;;;;13.65;3.40;;;;;;;;;;5052972;28;20045;-69
2023/07/06 05:34:32;;;;;;;7.28;3.35;;;;;;;;;;5028950;28;20116;-68
2023/07/06 05:36:57;;;;;;;6.55;3.42;;;;;;;;;;5036071;28;20063;-68
2023/07/06 05:39:23;;;;;;;6.75;3.08;;;;;;;;;;5031377;28;20399;-68
2023/07/06 05:41:48;;;;;;;5.93;3.70;;;;;;;;;;5036908;28;20060;-67
2023/07/06 05:44:14;;;;;;;4.68;2.85;;;;;;;;;;5042982;28;20028;-68
2023/07/06 05:46:40;;;;;;;11.52;3.50;;;;;;;;;;5048429;28;20036;-68
2023/07/06 05:49:05;;;;;;;8.50;3.60;;;;;;;;;;5017809;28;20047;-67
2023/07/06 05:51:31;;;;;;;4.45;3.00;;;;;;;;;;5050463;28;20040;-68
2023/07/06 05:53:57;;;;;;;8.02;3.33;;;;;;;;;;5042297;28;20025;-67
2023/07/06 05:56:23;;;;;;;5.78;3.22;;;;;;;;;;5051952;28;20067;-67
2023/07/06 05:58:49;;;;;;;6.40;3.25;;;;;;;;;;5033678;28;20025;-68
2023/07/06 06:01:14;;;;;;;4.60;3.40;;;;;;;;;;5047820;28;20037;-68
2023/07/06 06:03:40;;;;;;;7.85;4.47;;;;;;;;;;5031679;28;20144;-67
2023/07/06 06:06:06;;;;;;;7.22;4.60;;;;;;;;;;5030194;28;20324;-68
2023/07/06 06:08:32;;;;;;;6.53;3.72;;;;;;;;;;5023973;28;20025;-69
2023/07/06 06:11:00;;;;;;;8.15;3.92;;;;;;;;;;5034054;28;20044;-69
2023/07/06 06:13:27;;;;;;;11.32;4.90;;;;;;;;;;5055257;28;20070;-69
2023/07/06 06:15:52;;;;;;;7.93;3.40;;;;;;;;;;5053930;28;20057;-69
2023/07/06 06:18:18;;;;;;;9.50;3.50;;;;;;;;;;5059594;28;20039;-69
2023/07/06 06:20:44;;;;;;;9.35;3.50;;;;;;;;;;5045440;28;20044;-69
2023/07/06 06:23:10;;;;;;;8.75;3.55;;;;;;;;;;5031592;28;20104;-70
2023/07/06 06:25:38;;;;;;;5.80;2.83;;;;;;;;;;5036336;28;20419;-70
2023/07/06 06:28:04;;;;;;;11.48;2.92;;;;;;;;;;5054619;28;20035;-70
2023/07/06 06:30:29;;;;;;;15.13;3.05;;;;;;;;;;5045524;28;20037;-70
2023/07/06 06:32:57;;;;;;;10.77;3.05;;;;;;;;;;4999726;28;20797;-70
2023/07/06 06:35:25;;;;;;;6.88;4.95;;;;;;;;;;5051035;28;20045;-69
2023/07/06 06:37:51;;;;;;;7.95;5.55;;;;;;;;;;5040787;28;20096;-70
2023/07/06 06:40:19;;;;;;;4.90;3.53;;;;;;;;;;5044167;28;20502;-69
2023/07/06 06:42:44;;;;;;;6.75;2.83;;;;;;;;;;5032713;28;20013;-70
2023/07/06 06:45:10;;;;;;;4.93;3.95;;;;;;;;;;5046815;28;20025;-69
2023/07/06 06:47:36;;;;;;;6.13;2.72;;;;;;;;;;5051943;28;20029;-70
2023/07/06 06:50:02;;;;;;;7.82;2.30;;;;;;;;;;5049961;28;20033;-69
2023/07/06 06:52:27;;;;;;;2.80;2.20;;;;;;;;;;5037710;28;20036;-69
2023/07/06 06:54:53;;;;;;;3.17;2.40;;;;;;;;;;5044598;28;20353;-68
2023/07/06 06:57:22;;;;;;;6.07;2.75;;;;;;;;;;5035671;28;20116;-69
2023/07/06 06:59:47;;;;;;;4.10;2.30;;;;;;;;;;5023847;28;20100;-69
2023/07/06 07:02:14;;;;;;;2.90;2.45;;;;;;;;;;5053577;28;20098;-69
2023/07/06 07:04:40;;;;;;;7.38;2.30;;;;;;;;;;5053384;28;20036;-70
2023/07/06 07:07:06;;;;;;;3.10;2.45;;;;;;;;;;5049262;28;20048;-70
2023/07/06 07:09:32;;;;;;;2.80;2.60;;;;;;;;;;5011845;28;20062;-70
2023/07/06 07:11:57;;;;;;;6.28;2.42;;;;;;;;;;5037461;28;20037;-70
2023/07/06 07:14:23;;;;;;;5.78;2.70;;;;;;;;;;5011836;28;20113;-69
2023/07/06 07:16:48;;;;;;;3.53;2.58;;;;;;;;;;5036265;28;20061;-69
2023/07/06 07:19:14;;;;;;;7.00;3.05;;;;;;;;;;5042859;28;20035;-69
2023/07/06 07:21:40;;;;;;;7.60;2.60;;;;;;;;;;5029978;28;20125;-69
2023/07/06 07:24:05;;;;;;;6.82;2.92;;;;;;;;;;5059546;28;20051;-69
2023/07/06 07:26:31;;;;;;;5.07;2.70;;;;;;;;;;5023963;28;20048;-71
2023/07/06 07:28:57;;;;;;;7.10;2.65;;;;;;;;;;5037621;28;20593;-71
2023/07/06 07:31:25;;;;;;;11.45;3.00;;;;;;;;;;5057184;28;20541;-70
2023/07/06 07:33:50;;;;;;;4.90;3.15;;;;;;;;;;5051085;28;20479;-69
2023/07/06 07:36:18;;;;;;;15.63;2.60;;;;;;;;;;5056599;28;20112;-69
2023/07/06 07:38:45;;;;;;;10.93;3.75;;;;;;;;;;5043107;28;20040;-70
2023/07/06 07:41:13;;;;;;;22.35;4.50;;;;;;;;;;5042807;28;20048;-70
2023/07/06 07:43:42;;;;;;;25.92;3.40;;;;;;;;;;5037494;28;20033;-68
2023/07/06 07:46:10;;;;;;;11.32;3.17;;;;;;;;;;5044796;28;20076;-70
2023/07/06 07:48:39;;;;;;;8.05;2.95;;;;;;;;;;5055501;28;20029;-69
2023/07/06 07:51:09;;;;;;;6.45;2.67;;;;;;;;;;5048194;28;20052;-69
2023/07/06 07:53:37;;;;;;;6.15;2.95;;;;;;;;;;5048734;28;20482;-69
2023/07/06 07:56:04;;;;;;;8.32;2.90;;;;;;;;;;5022450;28;20033;-70
2023/07/06 07:58:30;;;;;;;4.20;2.90;;;;;;;;;;5053472;28;20037;-70
2023/07/06 08:00:56;;;;;;;5.20;2.95;;;;;;;;;;5055644;28;20040;-70
2023/07/06 08:03:25;;;;;;;7.10;2.80;;;;;;;;;;5052802;28;20021;-69
2023/07/06 08:05:52;;;;;;;6.95;2.97;;;;;;;;;;5022038;28;20079;-69
2023/07/06 08:08:18;;;;;;;7.75;2.90;;;;;;;;;;5055807;28;20090;-69
2023/07/06 08:10:45;;;;;;;9.88;2.85;;;;;;;;;;5034886;28;20041;-69
2023/07/06 08:13:10;;;;;;;5.85;2.72;;;;;;;;;;5052882;28;20033;-70
2023/07/06 08:15:39;;;;;;;13.88;2.78;;;;;;;;;;5039421;28;20128;-69
2023/07/06 08:18:06;;;;;;;7.82;2.80;;;;;;;;;;5048810;28;20032;-68
2023/07/06 08:20:32;;;;;;;7.80;2.60;;;;;;;;;;5031344;28;20055;-69
2023/07/06 08:23:01;;;;;;;10.02;2.63;;;;;;;;;;5057462;28;20021;-68
2023/07/06 08:25:28;;;;;;;4.03;2.75;;;;;;;;;;5048029;28;20037;-68
2023/07/06 08:27:54;;;;;;;4.80;2.35;;;;;;;;;;5053889;28;20049;-69
2023/07/06 08:30:21;;;;;;;6.10;3.28;;;;;;;;;;5057792;28;20060;-69
2023/07/06 08:32:50;;;;;;;3.38;2.75;;;;;;;;;;5036189;28;20059;-69
2023/07/06 08:35:17;;;;;;;11.35;2.65;;;;;;;;;;5028964;28;20104;-69
2023/07/06 08:37:44;;;;;;;3.65;2.75;;;;;;;;;;5055456;28;20059;-69
2023/07/06 08:40:17;;;;;;;11.60;3.00;;;;;;;;;;5039765;28;20103;-68
2023/07/06 08:42:45;;;;;;;7.18;2.42;;;;;;;;;;5055188;28;20023;-69
2023/07/06 08:45:21;;;;;;;4.32;2.42;;;;;;;;;;5037501;28;20111;-69
2023/07/06 08:47:48;;;;;;;6.78;2.47;;;;;;;;;;5033735;28;20029;-69
2023/07/06 08:50:20;;;;;;;5.05;2.25;;;;;;;;;;5039536;28;20029;-68
2023/07/06 08:52:46;;;;;;;9.23;3.42;;;;;;;;;;5040844;28;20478;-70
2023/07/06 08:55:16;;;;;;;3.00;2.53;;;;;;;;;;5044260;28;20107;-69
2023/07/06 08:57:45;;;;;;;5.68;2.60;;;;;;;;;;5046150;28;20111;-69
2023/07/06 09:00:25;;;;;;;9.63;2.60;;;;;;;;;;5055344;28;20036;-69
2023/07/06 09:02:57;;;;;;;2.97;2.42;;;;;;;;;;5053717;28;20027;-68
2023/07/06 09:05:31;;;;;;;5.35;2.20;;;;;;;;;;5034642;28;20065;-70
2023/07/06 09:07:57;;;;;;;6.15;3.00;;;;;;;;;;5057060;28;20429;-69
2023/07/06 09:10:26;;;;;;;6.38;3.00;;;;;;;;;;5056106;28;20036;-68
2023/07/06 09:13:11;;;;;;;7.97;3.00;;;;;;;;;;5035833;28;20036;-69
2023/07/06 09:15:37;;;;;;;5.32;2.60;;;;;;;;;;5054491;28;20049;-68
2023/07/06 09:18:03;;;;;;;4.78;2.20;;;;;;;;;;5021053;28;20490;-68
2023/07/06 09:20:29;;;;;;;3.15;1.80;;;;;;;;;;5036360;28;20037;-69
2023/07/06 09:22:54;;;;;;;5.57;1.95;;;;;;;;;;5018691;28;20489;-69
2023/07/06 09:25:42;;;;;;;6.43;2.58;;;;;;;;;;5036614;28;20065;-69
2023/07/06 09:28:19;;;;;;;6.50;2.30;;;;;;;;;;5039392;28;20398;-69
2023/07/06 09:30:47;;;;;;;8.18;2.42;;;;;;;;;;5046045;28;20041;-69
2023/07/06 09:33:20;;;;;;;3.90;2.47;;;;;;;;;;5055701;28;20489;-70
2023/07/06 09:35:49;;;;;;;7.22;3.30;;;;;;;;;;5063820;28;20040;-70
2023/07/06 09:38:15;;;;;;;6.05;2.53;;;;;;;;;;5027447;28;20029;-69
2023/07/06 09:40:43;;;;;;;7.32;2.80;;;;;;;;;;5044213;28;20063;-70
2023/07/06 09:43:27;;;;;;;4.88;2.75;;;;;;;;;;5056835;28;20021;-70
2023/07/06 09:45:54;;;;;;;9.95;3.22;;;;;;;;;;5045779;28;20041;-70
2023/07/06 09:48:31;;;;;;;5.20;2.70;;;;;;;;;;5022488;28;20072;-69
2023/07/06 09:51:05;;;;;;;5.38;2.47;;;;;;;;;;5053468;28;20487;-69
2023/07/06 09:53:34;;;;;;;5.28;2.50;;;;;;;;;;5025323;28;20025;-69
2023/07/06 09:55:59;;;;;;;6.13;2.80;;;;;;;;;;5051348;28;20037;-69
2023/07/06 09:58:27;;;;;;;7.75;2.50;;;;;;;;;;5053793;28;20037;-69
2023/07/06 10:01:03;;;;;;;3.13;2.67;;;;;;;;;;5060804;28;20044;-70
2023/07/06 10:03:46;;;;;;;6.45;2.70;;;;;;;;;;5051671;28;20048;-68
2023/07/06 10:06:18;;;;;;;6.55;2.67;;;;;;;;;;5054442;28;20036;-69
2023/07/06 10:09:03;;;;;;;8.20;2.65;;;;;;;;;;5059817;28;20037;-70
2023/07/06 10:11:34;;;;;;;6.97;2.75;;;;;;;;;;5050498;28;20049;-70
2023/07/06 10:14:13;;;;;;;7.10;2.53;;;;;;;;;;5035658;28;20127;-68
2023/07/06 10:17:14;;;;;;;5.15;2.65;;;;;;;;;;5032842;28;20055;-69
2023/07/06 10:19:58;;;;;;;7.13;2.55;;;;;;;;;;5040310;28;20051;-70
2023/07/06 10:22:33;;;;;;;6.32;2.38;;;;;;;;;;5044724;28;20049;-70
2023/07/06 10:25:18;;;;;;;4.65;2.38;;;;;;;;;;5033208;28;20066;-70
2023/07/06 10:27:49;;;;;;;5.30;2.30;;;;;;;;;;5051825;28;20025;-70
2023/07/06 10:30:20;;;;;;;;;;;;;;;;;;5040387;28;20033;-70
2023/07/06 10:32:51;;;;;;;7.20;2.88;;;;;;;;;;5051922;28;20377;-70
2023/07/06 10:35:30;;;;;;;3.17;2.50;;;;;;;;;;5030927;28;20034;-70
2023/07/06 10:37:57;;;;;;;7.50;2.28;;;;;;;;;;5028470;28;20114;-70
2023/07/06 10:40:24;;;;;;;4.25;2.50;;;;;;;;;;5030402;28;20848;-70
2023/07/06 10:43:13;;;;;;;5.45;2.42;;;;;;;;;;5051646;28;20044;-69
2023/07/06 10:45:39;;;;;;;5.75;2.60;;;;;;;;;;5048020;28;20119;-69
2023/07/06 10:48:21;;;;;;;9.13;2.47;;;;;;;;;;5053279;28;20056;-69
2023/07/06 10:51:16;;;;;;;4.45;2.03;;;;;;;;;;5050431;28;20039;-70
2023/07/06 10:53:48;;;;;;;10.48;2.45;;;;;;;;;;5038861;28;20111;-70
2023/07/06 10:56:20;;;;;;;6.18;2.50;;;;;;;;;;5016255;28;20049;-70
2023/07/06 10:58:50;;;;;;;8.85;2.38;;;;;;;;;;5054375;28;20032;-70
2023/07/06 11:01:19;;;;;;;3.87;2.57;;;;;;;;;;5048448;28;20033;-70
2023/07/06 11:03:45;;;;;;;8.85;2.83;;;;;;;;;;5044707;28;20040;-70
2023/07/06 11:06:15;;;;;;;6.40;2.45;;;;;;;;;;5056300;28;20077;-69
2023/07/06 11:09:07;;;;;;;3.22;2.42;;;;;;;;;;5043715;28;20028;-70
2023/07/06 11:11:49;;;;;;;5.78;2.38;;;;;;;;;;5048606;28;20061;-69
2023/07/06 11:14:19;;;;;;;4.15;2.22;;;;;;;;;;5056481;28;20056;-69
2023/07/06 11:16:55;;;;;;;4.88;2.70;;;;;;;;;;5056314;28;20056;-69
2023/07/06 11:19:26;;;;;;;3.30;2.28;;;;;;;;;;5041544;28;20095;-68
2023/07/06 11:21:54;;;;;;;6.55;2.78;;;;;;;;;;5049593;28;20060;-69
2023/07/06 11:24:25;;;;;;;5.05;2.30;;;;;;;;;;5052407;28;20021;-69
2023/07/06 11:26:58;;;;;;;6.75;2.65;;;;;;;;;;5052086;28;20036;-68
2023/07/06 11:29:30;;;;;;;3.97;2.40;;;;;;;;;;5059613;28;20045;-69
2023/07/06 11:32:26;;;;;;;3.78;2.00;;;;;;;;;;5044688;28;20029;-69
2023/07/06 11:35:11;;;;;;;4.32;2.90;;;;;;;;;;5056079;28;20428;-57
2023/07/06 11:37:49;;;;;;;4.70;2.47;;;;;;;;;;5052556;28;20039;-68
2023/07/06 11:40:29;;;;;;;8.68;2.95;;;;;;;;;;5055387;28;20563;-67
2023/07/06 11:43:08;;;;;;;4.40;2.50;;;;;;;;;;5037540;28;20028;-69
2023/07/06 11:46:00;;;;;;;9.98;3.08;;;;;;;;;;5052109;28;20032;-68
2023/07/06 11:48:34;;;;;;;7.85;2.70;;;;;;;;;;5052489;28;20029;-70
2023/07/06 11:51:01;;;;;;;6.10;2.78;;;;;;;;;;5053636;28;20073;-70
2023/07/06 11:53:44;;;;;;;6.35;2.80;;;;;;;;;;5053228;28;20025;-69
2023/07/06 11:56:53;;;;;;;4.75;2.70;;;;;;;;;;5053763;28;20037;-68
2023/07/06 11:59:40;;;;;;;3.78;2.78;;;;;;;;;;5048333;28;20031;-70
2023/07/06 12:02:14;;;;;;;8.25;3.00;;;;;;;;;;5022857;28;20120;-68
2023/07/06 12:04:40;;;;;;;6.43;3.13;;;;;;;;;;5041299;28;20030;-70
2023/07/06 12:07:23;;;;;;;8.20;3.60;;;;;;;;;;5042116;28;20519;-69
2023/07/06 12:09:48;;;;;;;5.32;2.75;;;;;;;;;;5044807;28;20049;-70
2023/07/06 12:12:17;;;;;;;4.57;2.75;;;;;;;;;;5051696;28;20525;-70
2023/07/06 12:14:44;;;;;;;6.45;3.10;;;;;;;;;;5049833;28;20021;-69
2023/07/06 12:17:11;;;;;;;6.53;3.60;;;;;;;;;;5040928;28;20049;-70
2023/07/06 12:19:41;;;;;;;6.75;3.00;;;;;;;;;;5044350;28;20043;-70
2023/07/06 12:22:13;;;;;;;5.20;2.55;;;;;;;;;;5053213;28;20040;-69
2023/07/06 12:24:39;;;;;;;5.82;2.83;;;;;;;;;;5040196;28;20028;-69
2023/07/06 12:27:13;;;;;;;6.70;3.10;;;;;;;;;;5051370;28;20079;-70
2023/07/06 12:29:39;;;;;;;7.05;2.70;;;;;;;;;;5052174;28;20551;-70
2023/07/06 12:32:13;;;;;;;6.43;2.53;;;;;;;;;;5041488;28;20048;-70
2023/07/06 12:34:46;;;;;;;4.20;2.80;;;;;;;;;;5030410;28;20040;-69
2023/07/06 12:37:17;;;;;;;5.35;2.50;;;;;;;;;;5048004;28;20052;-69
2023/07/06 12:39:45;;;;;;;9.25;2.92;;;;;;;;;;5058758;28;20056;-70
2023/07/06 12:42:12;;;;;;;9.95;2.90;;;;;;;;;;5048664;28;20398;-71
2023/07/06 12:44:40;;;;;;;4.32;2.67;;;;;;;;;;5050624;28;20017;-70
2023/07/06 12:47:31;;;;;;;4.95;2.80;;;;;;;;;;5055589;28;20044;-69
2023/07/06 12:50:04;;;;;;;3.13;2.65;;;;;;;;;;5046246;28;20664;-65
2023/07/06 12:52:30;;;;;;;3.03;2.38;;;;;;;;;;5041261;28;20036;-68
2023/07/06 12:54:56;;;;;;;5.40;2.83;;;;;;;;;;5051465;28;20021;-68
2023/07/06 12:57:28;;;;;;;10.43;3.10;;;;;;;;;;5028500;28;20029;-69
2023/07/06 13:00:14;;;;;;;4.55;3.28;;;;;;;;;;5054427;28;20033;-67
2023/07/06 13:02:42;;;;;;;3.90;2.70;;;;;;;;;;5056765;28;20033;-68
2023/07/06 13:05:27;;;;;;;6.93;2.70;;;;;;;;;;5040036;28;20111;-70
2023/07/06 13:07:54;;;;;;;4.72;2.70;;;;;;;;;;5045724;28;20021;-71
2023/07/06 13:10:31;;;;;;;4.68;2.60;;;;;;;;;;5047766;28;20033;-67
2023/07/06 13:12:57;;;;;;;7.25;2.40;;;;;;;;;;5040246;28;20055;-68
2023/07/06 13:15:37;;;;;;;3.58;2.58;;;;;;;;;;5035430;28;20036;-68
2023/07/06 13:18:06;;;;;;;3.95;2.78;;;;;;;;;;5057734;28;20047;-68
2023/07/06 13:20:33;;;;;;;11.30;3.00;;;;;;;;;;5050702;28;20037;-68
2023/07/06 13:22:59;;;;;;;6.15;2.70;;;;;;;;;;5035452;28;20440;-68
2023/07/06 13:25:24;;;;;;;11.70;2.90;;;;;;;;;;5018874;28;20035;-68
2023/07/06 13:27:50;;;;;;;4.45;2.75;;;;;;;;;;5037678;28;20040;-69
2023/07/06 13:30:17;;;;;;;5.88;3.00;;;;;;;;;;5035644;28;20052;-69
2023/07/06 13:32:45;;;;;;;6.07;2.75;;;;;;;;;;5047495;28;20029;-68
2023/07/06 13:35:13;;;;;;;4.63;3.30;;;;;;;;;;5054890;28;20029;-69
2023/07/06 13:37:42;;;;;;;3.80;2.50;;;;;;;;;;5045386;28;20040;-69
2023/07/06 13:40:20;;;;;;;7.45;3.10;;;;;;;;;;5056032;28;20089;-68
2023/07/06 13:42:47;;;;;;;4.25;2.70;;;;;;;;;;5045585;28;20105;-69
2023/07/06 13:45:24;;;;;;;5.25;2.70;;;;;;;;;;5053271;28;20061;-68
2023/07/06 13:47:53;;;;;;;6.65;2.78;;;;;;;;;;5050299;28;20028;-68
2023/07/06 13:50:20;;;;;;;7.13;3.13;;;;;;;;;;5048902;28;20049;-69
2023/07/06 13:52:46;;;;;;;8.60;3.17;;;;;;;;;;5044339;28;20076;-69
2023/07/06 13:55:26;;;;;;;6.45;2.85;;;;;;;;;;5054390;28;20048;-69
2023/07/06 13:57:52;;;;;;;11.40;3.37;;;;;;;;;;5052781;28;20701;-69
2023/07/06 14:00:17;;;;;;;6.03;2.83;;;;;;;;;;5038722;28;20040;-69
2023/07/06 14:02:49;;;;;;;5.78;2.92;;;;;;;;;;5038843;28;20466;-69
2023/07/06 14:05:22;;;;;;;9.70;3.00;;;;;;;;;;5044086;28;20043;-69
2023/07/06 14:07:49;;;;;;;7.03;2.88;;;;;;;;;;5049502;28;20061;-69
2023/07/06 14:10:17;;;;;;;4.80;2.70;;;;;;;;;;5050302;28;20037;-69
2023/07/06 14:12:44;;;;;;;4.30;2.65;;;;;;;;;;5033763;28;20032;-68
2023/07/06 14:15:10;;;;;;;7.30;3.13;;;;;;;;;;5038436;28;20033;-69
2023/07/06 14:17:36;;;;;;;5.93;3.17;;;;;;;;;;5056794;28;20126;-68
2023/07/06 14:20:02;;;;;;;8.00;2.90;;;;;;;;;;5051992;28;20029;-69
2023/07/06 14:22:28;;;;;;;6.25;2.75;;;;;;;;;;5036710;28;20025;-69
2023/07/06 14:24:54;;;;;;;8.75;3.13;;;;;;;;;;5036628;28;20027;-69
2023/07/06 14:27:19;;;;;;;8.35;2.92;;;;;;;;;;5037888;28;20091;-68
2023/07/06 14:29:45;;;;;;;7.45;3.03;;;;;;;;;;5042766;28;20463;-69
2023/07/06 14:32:15;;;;;;;5.43;2.53;;;;;;;;;;5040462;28;20114;-69
2023/07/06 14:34:49;;;;;;;11.25;2.92;;;;;;;;;;5038343;28;20467;-70
2023/07/06 14:37:15;;;;;;;5.85;3.25;;;;;;;;;;5048503;28;20095;-69
2023/07/06 14:39:41;;;;;;;4.60;3.00;;;;;;;;;;5028106;28;20025;-69
2023/07/06 14:42:07;;;;;;;4.05;2.75;;;;;;;;;;5036806;28;20037;-69
2023/07/06 14:44:35;;;;;;;7.57;2.42;;;;;;;;;;5057763;28;20032;-67
2023/07/06 14:47:01;;;;;;;8.43;2.95;;;;;;;;;;5042852;28;20029;-68
2023/07/06 14:49:26;;;;;;;11.02;3.33;;;;;;;;;;5041286;28;20108;-68
2023/07/06 14:51:51;;;;;;;7.07;2.75;;;;;;;;;;5019036;28;20083;-69
2023/07/06 14:54:18;;;;;;;7.32;2.78;;;;;;;;;;5026740;28;20033;-68
2023/07/06 14:56:44;;;;;;;3.97;2.65;;;;;;;;;;5046564;28;20048;-69
2023/07/06 14:59:10;;;;;;;9.38;2.80;;;;;;;;;;5044967;28;20483;-69